createdAt,value
2018-11-28T00:00:32.950Z,16.30
2018-11-28T00:01:32.936Z,18.30
2018-11-28T00:02:32.927Z,18.30
2018-11-28T00:03:32.911Z,15.80
2018-11-28T00:04:32.900Z,16.50
2018-11-28T00:05:32.890Z,15.30
2018-11-28T00:06:32.879Z,18.50
2018-11-28T00:07:32.867Z,16.60
2018-11-28T00:08:32.855Z,17.20
2018-11-28T00:09:41.489Z,17.00
2018-11-28T00:11:03.815Z,13.80
2018-11-28T00:12:10.932Z,17.20
2018-11-28T00:13:45.344Z,18.60
2018-11-28T00:14:45.331Z,15.90
2018-11-28T00:16:26.884Z,15.70
2018-11-28T00:17:26.857Z,16.70
2018-11-28T00:19:08.395Z,13.70
2018-11-28T00:20:08.384Z,15.90
2018-11-28T00:21:49.935Z,14.70
2018-11-28T00:22:59.558Z,15.00
2018-11-28T00:24:31.961Z,14.80
2018-11-28T00:25:39.093Z,16.00
2018-11-28T00:27:13.501Z,12.00
2018-11-28T00:28:22.108Z,16.90
2018-11-28T00:29:55.511Z,14.90
2018-11-28T00:31:02.834Z,15.90
2018-11-28T00:32:46.131Z,16.90
2018-11-28T00:33:45.656Z,18.60
2018-11-28T00:35:19.082Z,16.70
2018-11-28T00:36:27.690Z,16.60
2018-11-28T00:37:50.224Z,12.70
2018-11-28T00:38:50.211Z,14.20
2018-11-28T00:39:50.198Z,17.10
2018-11-28T00:40:50.195Z,16.70
2018-11-28T00:41:50.183Z,13.60
2018-11-28T00:42:50.167Z,16.90
2018-11-28T00:43:50.154Z,14.10
2018-11-28T00:44:50.147Z,15.20
2018-11-28T00:45:50.139Z,14.40
2018-11-28T00:46:50.138Z,15.60
2018-11-28T00:47:50.111Z,14.50
2018-11-28T00:48:50.104Z,14.30
2018-11-28T00:49:50.088Z,16.90
2018-11-28T00:50:50.077Z,14.80
2018-11-28T00:51:50.070Z,19.60
2018-11-28T00:52:50.063Z,15.60
2018-11-28T00:53:50.048Z,17.60
2018-11-28T00:54:50.037Z,16.60
2018-11-28T00:55:50.036Z,16.90
2018-11-28T00:56:50.016Z,16.00
2018-11-28T00:57:49.999Z,15.90
2018-11-28T00:58:49.988Z,15.90
2018-11-28T00:59:49.985Z,15.20
2018-11-28T01:00:49.972Z,13.50
2018-11-28T01:01:49.955Z,17.80
2018-11-28T01:02:49.955Z,15.20
2018-11-28T01:03:49.939Z,15.70
2018-11-28T01:04:49.923Z,15.30
2018-11-28T01:05:49.913Z,16.50
2018-11-28T01:06:49.911Z,16.80
2018-11-28T01:07:49.898Z,14.00
2018-11-28T01:08:49.884Z,16.30
2018-11-28T01:09:49.871Z,18.10
2018-11-28T01:10:49.862Z,16.40
2018-11-28T01:11:49.848Z,14.90
2018-11-28T01:12:49.837Z,15.20
2018-11-28T01:13:49.824Z,16.70
2018-11-28T01:14:49.813Z,17.00
2018-11-28T01:15:49.807Z,16.90
2018-11-28T01:16:49.791Z,14.50
2018-11-28T01:17:49.787Z,15.80
2018-11-28T01:18:49.769Z,19.60
2018-11-28T01:19:49.763Z,15.30
2018-11-28T01:20:49.750Z,16.20
2018-11-28T01:21:49.741Z,17.00
2018-11-28T01:22:49.736Z,16.40
2018-11-28T01:23:49.715Z,15.60
2018-11-28T01:24:49.709Z,16.70
2018-11-28T01:25:49.697Z,14.70
2018-11-28T01:26:49.691Z,13.70
2018-11-28T01:27:49.675Z,13.70
2018-11-28T01:28:49.659Z,16.00
2018-11-28T01:29:49.649Z,16.10
2018-11-28T01:30:49.638Z,15.40
2018-11-28T01:31:49.635Z,17.00
2018-11-28T01:32:49.631Z,17.30
2018-11-28T01:33:49.606Z,15.40
2018-11-28T01:34:49.593Z,15.60
2018-11-28T01:35:49.587Z,16.00
2018-11-28T01:36:49.580Z,14.50
2018-11-28T01:37:49.569Z,15.60
2018-11-28T01:38:49.553Z,15.40
2018-11-28T01:39:49.544Z,17.40
2018-11-28T01:40:49.532Z,16.40
2018-11-28T01:41:49.523Z,15.30
2018-11-28T01:42:49.511Z,14.80
2018-11-28T01:43:49.506Z,15.70
2018-11-28T01:44:49.489Z,16.10
2018-11-28T01:45:49.484Z,16.90
2018-11-28T01:46:49.468Z,14.90
2018-11-28T01:47:49.453Z,17.60
2018-11-28T01:48:49.452Z,17.50
2018-11-28T01:49:49.428Z,14.90
2018-11-28T01:50:49.422Z,18.70
2018-11-28T01:51:49.411Z,15.80
2018-11-28T01:52:49.395Z,17.80
2018-11-28T01:53:49.416Z,18.10
2018-11-28T01:54:49.378Z,16.70
2018-11-28T01:55:49.362Z,18.50
2018-11-28T01:56:49.351Z,14.90
2018-11-28T01:57:49.344Z,17.60
2018-11-28T01:58:49.334Z,16.10
2018-11-28T01:59:49.324Z,16.80
2018-11-28T02:00:49.307Z,17.40
2018-11-28T02:01:49.295Z,17.30
2018-11-28T02:02:49.286Z,17.90
2018-11-28T02:03:49.274Z,17.10
2018-11-28T02:04:49.268Z,19.90
2018-11-28T02:05:49.263Z,19.40
2018-11-28T02:06:49.240Z,18.00
2018-11-28T02:07:49.235Z,18.20
2018-11-28T02:08:49.218Z,19.30
2018-11-28T02:09:49.211Z,20.00
2018-11-28T02:10:49.209Z,19.20
2018-11-28T02:11:49.196Z,19.70
2018-11-28T02:12:49.179Z,20.30
2018-11-28T02:13:49.168Z,18.60
2018-11-28T02:14:49.152Z,16.30
2018-11-28T02:15:49.150Z,19.40
2018-11-28T02:16:49.135Z,19.70
2018-11-28T02:17:49.118Z,21.10
2018-11-28T02:18:49.112Z,18.90
2018-11-28T02:19:49.102Z,21.50
2018-11-28T02:20:49.091Z,19.80
2018-11-28T02:21:49.080Z,18.60
2018-11-28T02:22:49.070Z,20.00
2018-11-28T02:23:49.058Z,19.00
2018-11-28T02:24:49.044Z,16.50
2018-11-28T02:25:49.038Z,17.40
2018-11-28T02:26:49.027Z,19.60
2018-11-28T02:27:49.016Z,21.20
2018-11-28T02:28:49.004Z,20.70
2018-11-28T02:29:48.989Z,19.30
2018-11-28T02:30:48.981Z,23.40
2018-11-28T02:31:48.969Z,20.90
2018-11-28T02:32:48.960Z,20.00
2018-11-28T02:33:48.943Z,24.00
2018-11-28T02:34:48.931Z,21.10
2018-11-28T02:35:48.926Z,20.00
2018-11-28T02:36:48.914Z,21.20
2018-11-28T02:37:48.903Z,20.00
2018-11-28T02:38:48.894Z,19.40
2018-11-28T02:39:48.878Z,19.20
2018-11-28T02:40:48.872Z,21.60
2018-11-28T02:41:48.854Z,19.60
2018-11-28T02:42:48.851Z,20.70
2018-11-28T02:43:48.833Z,21.10
2018-11-28T02:44:48.826Z,20.70
2018-11-28T02:45:48.815Z,21.50
2018-11-28T02:46:48.805Z,21.80
2018-11-28T02:47:48.789Z,22.10
2018-11-28T02:48:48.784Z,20.10
2018-11-28T02:49:48.766Z,23.60
2018-11-28T02:50:48.757Z,20.60
2018-11-28T02:51:48.811Z,20.90
2018-11-28T02:52:48.738Z,19.70
2018-11-28T02:53:48.738Z,21.80
2018-11-28T02:54:48.712Z,21.50
2018-11-28T02:55:48.701Z,21.60
2018-11-28T02:56:48.693Z,20.30
2018-11-28T02:57:48.683Z,24.10
2018-11-28T02:58:48.669Z,20.70
2018-11-28T02:59:48.657Z,19.90
2018-11-28T03:00:48.650Z,22.30
2018-11-28T03:01:48.638Z,21.60
2018-11-28T03:02:48.636Z,22.80
2018-11-28T03:03:48.613Z,22.60
2018-11-28T03:04:48.609Z,20.30
2018-11-28T03:05:48.594Z,21.60
2018-11-28T03:06:48.583Z,21.10
2018-11-28T03:07:48.568Z,19.90
2018-11-28T03:08:48.564Z,21.00
2018-11-28T03:09:48.546Z,21.60
2018-11-28T03:10:48.535Z,20.70
2018-11-28T03:11:48.528Z,20.60
2018-11-28T03:12:48.530Z,23.10
2018-11-28T03:13:48.505Z,19.80
2018-11-28T03:14:48.495Z,23.20
2018-11-28T03:15:48.483Z,20.70
2018-11-28T03:16:48.479Z,20.90
2018-11-28T03:17:48.460Z,22.10
2018-11-28T03:18:48.460Z,21.00
2018-11-28T03:19:48.435Z,19.70
2018-11-28T03:20:48.429Z,21.00
2018-11-28T03:21:48.414Z,22.70
2018-11-28T03:22:48.407Z,23.70
2018-11-28T03:23:48.396Z,21.70
2018-11-28T03:24:48.391Z,21.90
2018-11-28T03:25:48.377Z,22.50
2018-11-28T03:26:48.365Z,22.90
2018-11-28T03:27:48.352Z,20.50
2018-11-28T03:28:48.342Z,21.60
2018-11-28T03:29:48.326Z,20.70
2018-11-28T03:30:48.318Z,20.80
2018-11-28T03:31:48.340Z,21.10
2018-11-28T03:32:48.324Z,22.30
2018-11-28T03:33:48.287Z,21.10
2018-11-28T03:34:48.272Z,20.90
2018-11-28T03:35:48.264Z,23.90
2018-11-28T03:36:48.273Z,19.20
2018-11-28T03:37:48.237Z,22.50
2018-11-28T03:38:48.231Z,21.70
2018-11-28T03:39:48.216Z,23.40
2018-11-28T03:40:48.209Z,20.70
2018-11-28T03:41:48.195Z,21.50
2018-11-28T03:42:48.182Z,22.80
2018-11-28T03:43:48.177Z,23.40
2018-11-28T03:44:48.168Z,20.30
2018-11-28T03:45:48.154Z,22.60
2018-11-28T03:46:48.143Z,24.50
2018-11-28T03:47:48.130Z,22.70
2018-11-28T03:48:48.123Z,22.50
2018-11-28T03:49:48.117Z,21.90
2018-11-28T03:50:48.096Z,22.90
2018-11-28T03:51:48.089Z,24.10
2018-11-28T03:52:48.078Z,20.50
2018-11-28T03:53:48.062Z,23.10
2018-11-28T03:54:48.051Z,24.50
2018-11-28T03:55:48.040Z,22.00
2018-11-28T03:56:48.035Z,22.80
2018-11-28T03:57:48.028Z,21.80
2018-11-28T03:58:48.006Z,25.10
2018-11-28T03:59:48.004Z,24.10
2018-11-28T04:00:47.990Z,24.60
2018-11-28T04:01:47.980Z,22.70
2018-11-28T04:02:47.963Z,22.40
2018-11-28T04:03:47.952Z,21.80
2018-11-28T04:04:47.948Z,23.40
2018-11-28T04:05:47.931Z,21.80
2018-11-28T04:06:47.924Z,23.20
2018-11-28T04:07:47.910Z,22.90
2018-11-28T04:08:47.897Z,22.50
2018-11-28T04:09:47.893Z,24.20
2018-11-28T04:10:47.885Z,22.80
2018-11-28T04:11:47.865Z,26.00
2018-11-28T04:12:47.855Z,25.40
2018-11-28T04:13:47.842Z,26.50
2018-11-28T04:14:47.832Z,22.70
2018-11-28T04:15:47.820Z,25.60
2018-11-28T04:16:47.814Z,23.70
2018-11-28T04:17:47.808Z,22.70
2018-11-28T04:18:47.792Z,24.00
2018-11-28T04:19:47.787Z,24.50
2018-11-28T04:20:47.766Z,25.40
2018-11-28T04:21:47.759Z,21.70
2018-11-28T04:22:47.747Z,24.20
2018-11-28T04:23:47.765Z,23.10
2018-11-28T04:24:47.726Z,23.30
2018-11-28T04:25:47.716Z,23.30
2018-11-28T04:26:47.705Z,24.20
2018-11-28T04:27:47.691Z,23.10
2018-11-28T04:28:47.684Z,22.10
2018-11-28T04:29:47.666Z,24.30
2018-11-28T04:30:47.665Z,24.90
2018-11-28T04:31:47.650Z,24.50
2018-11-28T04:32:47.635Z,24.30
2018-11-28T04:33:47.629Z,26.50
2018-11-28T04:34:47.611Z,23.90
2018-11-28T04:35:47.605Z,23.40
2018-11-28T04:36:47.597Z,24.40
2018-11-28T04:37:47.583Z,24.10
2018-11-28T04:38:47.573Z,24.40
2018-11-28T04:39:47.564Z,25.60
2018-11-28T04:40:47.550Z,23.80
2018-11-28T04:41:47.541Z,24.50
2018-11-28T04:42:47.530Z,23.10
2018-11-28T04:43:47.518Z,23.40
2018-11-28T04:44:47.510Z,24.00
2018-11-28T04:45:47.492Z,23.70
2018-11-28T04:46:47.479Z,27.30
2018-11-28T04:47:47.478Z,23.10
2018-11-28T04:48:47.463Z,22.20
2018-11-28T04:49:47.449Z,24.80
2018-11-28T04:50:47.438Z,25.60
2018-11-28T04:51:47.425Z,23.70
2018-11-28T04:52:47.418Z,22.40
2018-11-28T04:53:47.411Z,24.60
2018-11-28T04:54:47.396Z,24.10
2018-11-28T04:55:47.388Z,24.10
2018-11-28T04:56:47.370Z,21.30
2018-11-28T04:57:47.386Z,25.10
2018-11-28T04:58:47.355Z,23.30
2018-11-28T04:59:47.343Z,23.00
2018-11-28T05:00:47.334Z,22.90
2018-11-28T05:01:47.326Z,25.80
2018-11-28T05:02:47.306Z,21.30
2018-11-28T05:03:47.300Z,24.60
2018-11-28T05:04:47.287Z,28.80
2018-11-28T05:05:47.275Z,31.40
2018-11-28T05:06:47.264Z,28.60
2018-11-28T05:07:47.248Z,51.90
2018-11-28T05:08:47.243Z,39.50
2018-11-28T05:09:47.234Z,39.00
2018-11-28T05:10:47.215Z,39.20
2018-11-28T05:11:47.205Z,36.90
2018-11-28T05:12:47.201Z,34.10
2018-11-28T05:13:47.183Z,30.10
2018-11-28T05:14:47.172Z,28.20
2018-11-28T05:15:47.165Z,27.90
2018-11-28T05:16:47.156Z,31.60
2018-11-28T05:17:47.143Z,35.00
2018-11-28T05:18:47.137Z,32.90
2018-11-28T05:19:47.116Z,32.60
2018-11-28T05:20:47.113Z,29.90
2018-11-28T05:21:47.095Z,30.10
2018-11-28T05:22:47.084Z,37.30
2018-11-28T05:23:47.076Z,39.70
2018-11-28T05:24:47.062Z,36.60
2018-11-28T05:25:47.057Z,38.80
2018-11-28T05:26:47.040Z,34.20
2018-11-28T05:27:47.034Z,34.50
2018-11-28T05:28:47.023Z,34.30
2018-11-28T05:29:47.014Z,33.00
2018-11-28T05:30:47.001Z,30.40
2018-11-28T05:31:46.990Z,30.40
2018-11-28T05:32:46.982Z,28.80
2018-11-28T05:33:46.972Z,31.30
2018-11-28T05:34:46.959Z,30.60
2018-11-28T05:35:46.941Z,29.70
2018-11-28T05:36:46.931Z,29.20
2018-11-28T05:37:46.922Z,30.50
2018-11-28T05:38:46.914Z,33.10
2018-11-28T05:39:46.898Z,31.20
2018-11-28T05:40:46.899Z,42.30
2018-11-28T05:41:46.882Z,38.70
2018-11-28T05:42:46.871Z,42.90
2018-11-28T05:43:46.854Z,39.30
2018-11-28T05:44:46.843Z,36.00
2018-11-28T05:45:46.842Z,37.10
2018-11-28T05:46:46.832Z,33.40
2018-11-28T05:47:46.827Z,31.90
2018-11-28T05:48:46.799Z,33.50
2018-11-28T05:49:46.789Z,37.00
2018-11-28T05:50:46.778Z,32.80
2018-11-28T05:51:46.772Z,31.80
2018-11-28T05:52:46.756Z,35.50
2018-11-28T05:53:46.744Z,34.20
2018-11-28T05:54:46.733Z,32.30
2018-11-28T05:55:46.722Z,32.20
2018-11-28T05:56:46.717Z,32.00
2018-11-28T05:57:46.705Z,34.20
2018-11-28T05:58:46.698Z,34.80
2018-11-28T05:59:46.678Z,39.80
2018-11-28T06:00:46.672Z,36.90
2018-11-28T06:01:46.662Z,39.80
2018-11-28T06:02:46.647Z,36.60
2018-11-28T06:03:46.645Z,33.00
2018-11-28T06:04:46.623Z,35.10
2018-11-28T06:05:46.617Z,38.70
2018-11-28T06:06:46.603Z,32.10
2018-11-28T06:07:46.599Z,33.30
2018-11-28T06:08:46.586Z,34.20
2018-11-28T06:09:46.568Z,36.30
2018-11-28T06:10:46.565Z,33.90
2018-11-28T06:11:46.547Z,31.70
2018-11-28T06:12:46.541Z,36.90
2018-11-28T06:13:46.533Z,34.30
2018-11-28T06:14:46.514Z,38.90
2018-11-28T06:15:46.537Z,38.20
2018-11-28T06:16:46.492Z,35.40
2018-11-28T06:17:46.485Z,35.50
2018-11-28T06:18:46.476Z,36.90
2018-11-28T06:19:46.465Z,37.10
2018-11-28T06:20:46.454Z,36.20
2018-11-28T06:21:46.445Z,39.00
2018-11-28T06:22:46.433Z,34.50
2018-11-28T06:23:46.420Z,37.00
2018-11-28T06:24:46.410Z,38.30
2018-11-28T06:25:46.400Z,38.60
2018-11-28T06:26:46.392Z,37.30
2018-11-28T06:27:46.377Z,36.20
2018-11-28T06:28:46.361Z,36.80
2018-11-28T06:29:46.352Z,40.10
2018-11-28T06:30:46.345Z,39.20
2018-11-28T06:31:46.334Z,36.20
2018-11-28T06:32:51.232Z,38.50
2018-11-28T06:33:47.312Z,66.10
2018-11-28T06:34:46.300Z,354.40
2018-11-28T06:35:46.285Z,245.20
2018-11-28T06:36:46.273Z,118.30
2018-11-28T06:37:46.268Z,90.10
2018-11-28T06:38:46.258Z,120.90
2018-11-28T06:39:46.246Z,93.20
2018-11-28T06:40:46.229Z,65.90
2018-11-28T06:41:46.225Z,50.30
2018-11-28T06:42:46.212Z,50.80
2018-11-28T06:43:46.198Z,44.20
2018-11-28T06:44:46.189Z,43.50
2018-11-28T06:45:46.186Z,42.20
2018-11-28T06:46:46.170Z,37.90
2018-11-28T06:47:46.154Z,38.00
2018-11-28T06:48:46.143Z,36.90
2018-11-28T06:49:46.143Z,37.60
2018-11-28T06:50:46.125Z,40.00
2018-11-28T06:51:46.109Z,37.80
2018-11-28T06:52:46.099Z,40.20
2018-11-28T06:53:47.208Z,40.70
2018-11-28T06:54:46.079Z,42.60
2018-11-28T06:55:46.071Z,41.40
2018-11-28T06:56:46.059Z,41.10
2018-11-28T06:57:46.049Z,41.70
2018-11-28T06:58:46.038Z,42.80
2018-11-28T06:59:46.030Z,43.30
2018-11-28T07:00:46.021Z,42.30
2018-11-28T07:01:46.003Z,41.30
2018-11-28T07:02:45.990Z,40.50
2018-11-28T07:03:45.984Z,45.90
2018-11-28T07:04:45.968Z,45.60
2018-11-28T07:05:45.959Z,43.30
2018-11-28T07:06:45.950Z,42.40
2018-11-28T07:07:45.941Z,40.10
2018-11-28T07:08:45.929Z,44.20
2018-11-28T07:09:45.917Z,46.80
2018-11-28T07:10:45.901Z,41.60
2018-11-28T07:11:45.897Z,41.10
2018-11-28T07:12:45.895Z,42.50
2018-11-28T07:13:45.868Z,43.70
2018-11-28T07:14:45.859Z,42.50
2018-11-28T07:15:45.857Z,41.50
2018-11-28T07:16:45.840Z,38.40
2018-11-28T07:17:45.836Z,40.70
2018-11-28T07:18:45.814Z,42.50
2018-11-28T07:19:45.807Z,42.00
2018-11-28T07:20:45.795Z,40.50
2018-11-28T07:21:45.786Z,38.10
2018-11-28T07:22:45.780Z,43.00
2018-11-28T07:23:45.764Z,40.90
2018-11-28T07:24:45.747Z,40.70
2018-11-28T07:25:45.742Z,39.40
2018-11-28T07:26:45.726Z,36.90
2018-11-28T07:27:45.733Z,37.80
2018-11-28T07:28:45.716Z,39.40
2018-11-28T07:29:45.697Z,39.20
2018-11-28T07:30:45.685Z,36.70
2018-11-28T07:31:45.676Z,39.10
2018-11-28T07:32:45.661Z,35.90
2018-11-28T07:33:45.659Z,37.20
2018-11-28T07:34:45.649Z,36.80
2018-11-28T07:35:45.629Z,36.50
2018-11-28T07:36:45.623Z,36.00
2018-11-28T07:37:45.605Z,36.50
2018-11-28T07:38:45.601Z,34.50
2018-11-28T07:39:45.587Z,36.50
2018-11-28T07:40:45.579Z,39.70
2018-11-28T07:41:45.567Z,35.60
2018-11-28T07:42:45.558Z,40.70
2018-11-28T07:43:45.554Z,37.60
2018-11-28T07:44:45.528Z,37.60
2018-11-28T07:45:45.542Z,39.20
2018-11-28T07:46:45.521Z,35.10
2018-11-28T07:47:45.499Z,35.20
2018-11-28T07:48:45.492Z,38.10
2018-11-28T07:49:45.481Z,35.40
2018-11-28T07:50:45.468Z,35.20
2018-11-28T07:51:45.461Z,33.20
2018-11-28T07:52:45.448Z,37.70
2018-11-28T07:53:45.436Z,35.70
2018-11-28T07:54:45.425Z,38.90
2018-11-28T07:55:45.412Z,37.30
2018-11-28T07:56:45.399Z,37.40
2018-11-28T07:57:45.393Z,36.60
2018-11-28T07:58:45.381Z,35.30
2018-11-28T07:59:45.399Z,32.70
2018-11-28T08:00:45.354Z,34.40
2018-11-28T08:01:45.396Z,34.60
2018-11-28T08:02:45.349Z,32.10
2018-11-28T08:03:45.326Z,33.40
2018-11-28T08:04:45.337Z,32.50
2018-11-28T08:05:45.307Z,32.30
2018-11-28T08:06:45.291Z,33.30
2018-11-28T08:07:45.284Z,32.00
2018-11-28T08:08:52.413Z,33.50
2018-11-28T08:10:26.913Z,26.90
2018-11-28T08:11:36.443Z,36.80
2018-11-28T08:13:08.346Z,26.20
2018-11-28T08:14:15.474Z,31.70
2018-11-28T08:15:49.903Z,26.70
2018-11-28T08:16:49.872Z,32.20
2018-11-28T08:18:31.407Z,27.90
2018-11-28T08:19:31.396Z,32.00
2018-11-28T08:20:31.386Z,33.10
2018-11-28T08:21:31.376Z,29.20
2018-11-28T08:22:31.365Z,29.90
2018-11-28T08:23:31.355Z,32.40
2018-11-28T08:24:31.343Z,32.10
2018-11-28T08:25:31.332Z,29.80
2018-11-28T08:26:38.462Z,28.40
2018-11-28T08:28:12.963Z,23.10
2018-11-28T08:29:21.022Z,29.20
2018-11-28T08:30:43.358Z,28.10
2018-11-28T08:31:43.346Z,27.90
2018-11-28T08:33:36.841Z,22.40
2018-11-28T08:34:36.819Z,26.30
2018-11-28T08:35:36.720Z,26.40
2018-11-28T08:36:36.705Z,25.50
2018-11-28T08:37:36.691Z,29.90
2018-11-28T08:38:36.685Z,28.90
2018-11-28T08:39:36.669Z,26.40
2018-11-28T08:40:36.663Z,27.90
2018-11-28T08:41:36.660Z,30.20
2018-11-28T08:42:36.641Z,24.90
2018-11-28T08:43:36.631Z,28.80
2018-11-28T08:44:36.641Z,27.90
2018-11-28T08:45:36.603Z,28.80
2018-11-28T08:46:36.598Z,28.20
2018-11-28T08:47:36.588Z,29.20
2018-11-28T08:48:36.578Z,28.60
2018-11-28T08:49:36.630Z,30.20
2018-11-28T08:50:36.565Z,31.10
2018-11-28T08:51:37.414Z,27.50
2018-11-28T08:52:36.536Z,27.70
2018-11-28T08:53:36.521Z,27.50
2018-11-28T08:54:36.519Z,27.20
2018-11-28T08:55:36.526Z,26.80
2018-11-28T08:56:36.485Z,26.80
2018-11-28T08:57:36.473Z,25.10
2018-11-28T08:58:36.462Z,27.10
2018-11-28T08:59:36.462Z,27.70
2018-11-28T09:00:36.446Z,26.40
2018-11-28T09:01:36.915Z,26.80
2018-11-28T09:02:36.422Z,29.40
2018-11-28T09:03:36.463Z,28.30
2018-11-28T09:04:36.411Z,31.00
2018-11-28T09:05:36.390Z,27.50
2018-11-28T09:06:36.384Z,28.10
2018-11-28T09:07:36.374Z,27.50
2018-11-28T09:08:36.360Z,30.20
2018-11-28T09:09:36.344Z,27.40
2018-11-28T09:10:36.331Z,26.00
2018-11-28T09:11:36.321Z,26.00
2018-11-28T09:12:36.348Z,26.10
2018-11-28T09:13:36.302Z,27.20
2018-11-28T09:14:36.295Z,26.90
2018-11-28T09:15:36.396Z,25.60
2018-11-28T09:16:36.268Z,26.80
2018-11-28T09:17:36.259Z,27.00
2018-11-28T09:18:36.253Z,26.60
2018-11-28T09:19:36.231Z,25.60
2018-11-28T09:20:36.221Z,28.00
2018-11-28T09:21:36.242Z,26.80
2018-11-28T09:22:36.205Z,25.80
2018-11-28T09:23:36.200Z,24.50
2018-11-28T09:24:36.179Z,22.80
2018-11-28T09:25:36.188Z,23.80
2018-11-28T09:26:36.157Z,24.40
2018-11-28T09:27:36.143Z,25.60
2018-11-28T09:28:36.133Z,25.80
2018-11-28T09:29:36.166Z,24.80
2018-11-28T09:30:36.115Z,25.00
2018-11-28T09:31:36.108Z,23.10
2018-11-28T09:32:36.098Z,24.70
2018-11-28T09:33:36.078Z,31.00
2018-11-28T09:34:36.141Z,26.10
2018-11-28T09:35:36.061Z,25.30
2018-11-28T09:36:36.050Z,27.20
2018-11-28T09:37:36.034Z,23.60
2018-11-28T09:38:36.023Z,24.50
2018-11-28T09:39:36.017Z,23.80
2018-11-28T09:40:36.012Z,24.10
2018-11-28T09:41:35.990Z,24.40
2018-11-28T09:42:35.980Z,25.40
2018-11-28T09:43:35.969Z,22.60
2018-11-28T09:44:35.962Z,22.70
2018-11-28T09:45:35.947Z,23.30
2018-11-28T09:46:35.940Z,22.00
2018-11-28T09:47:35.933Z,22.10
2018-11-28T09:48:35.913Z,21.40
2018-11-28T09:49:35.944Z,20.30
2018-11-28T09:50:35.891Z,20.30
2018-11-28T09:51:35.887Z,21.90
2018-11-28T09:52:36.135Z,20.30
2018-11-28T09:53:35.863Z,20.00
2018-11-28T09:54:35.848Z,19.90
2018-11-28T09:55:35.915Z,24.20
2018-11-28T09:56:35.825Z,18.70
2018-11-28T09:57:35.818Z,20.90
2018-11-28T09:58:35.808Z,19.40
2018-11-28T09:59:35.792Z,21.00
2018-11-28T10:00:37.026Z,19.60
2018-11-28T10:01:35.770Z,21.00
2018-11-28T10:02:35.761Z,19.10
2018-11-28T10:03:35.753Z,19.10
2018-11-28T10:04:35.776Z,17.80
2018-11-28T10:05:35.727Z,16.00
2018-11-28T10:06:35.724Z,19.30
2018-11-28T10:07:35.706Z,15.50
2018-11-28T10:08:35.701Z,15.80
2018-11-28T10:09:35.711Z,17.40
2018-11-28T10:10:35.720Z,17.60
2018-11-28T10:11:35.691Z,16.90
2018-11-28T10:12:35.668Z,17.10
2018-11-28T10:13:35.733Z,19.80
2018-11-28T10:14:35.664Z,16.80
2018-11-28T10:15:35.880Z,20.20
2018-11-28T10:16:35.606Z,18.70
2018-11-28T10:17:35.643Z,16.10
2018-11-28T10:18:35.903Z,16.60
2018-11-28T10:19:35.577Z,18.10
2018-11-28T10:20:35.570Z,17.70
2018-11-28T10:21:35.577Z,16.50
2018-11-28T10:22:35.636Z,16.60
2018-11-28T10:23:35.529Z,16.20
2018-11-28T10:24:35.520Z,16.30
2018-11-28T10:25:35.507Z,16.40
2018-11-28T10:26:35.498Z,14.90
2018-11-28T10:27:35.483Z,22.00
2018-11-28T10:28:35.474Z,24.00
2018-11-28T10:29:35.481Z,14.60
2018-11-28T10:30:35.468Z,14.60
2018-11-28T10:31:35.448Z,15.00
2018-11-28T10:32:35.429Z,20.60
2018-11-28T10:33:35.423Z,19.70
2018-11-28T10:34:35.412Z,15.10
2018-11-28T10:35:35.403Z,16.60
2018-11-28T10:36:35.441Z,17.00
2018-11-28T10:37:35.376Z,13.20
2018-11-28T10:38:35.364Z,15.40
2018-11-28T10:39:35.352Z,14.50
2018-11-28T10:40:35.347Z,16.00
2018-11-28T10:41:35.341Z,14.30
2018-11-28T10:42:35.319Z,13.20
2018-11-28T10:43:35.310Z,13.20
2018-11-28T10:44:35.305Z,11.60
2018-11-28T10:45:35.285Z,12.90
2018-11-28T10:46:35.275Z,13.80
2018-11-28T10:47:35.271Z,12.50
2018-11-28T10:48:35.258Z,13.10
2018-11-28T10:49:35.249Z,11.20
2018-11-28T10:50:35.235Z,13.40
2018-11-28T10:51:35.234Z,11.00
2018-11-28T10:52:35.218Z,12.70
2018-11-28T10:53:35.204Z,13.60
2018-11-28T10:54:35.191Z,11.70
2018-11-28T10:55:35.183Z,11.10
2018-11-28T10:56:35.165Z,10.60
2018-11-28T10:57:35.184Z,11.80
2018-11-28T10:58:35.148Z,12.20
2018-11-28T10:59:35.142Z,12.20
2018-11-28T11:00:35.129Z,12.30
2018-11-28T11:01:35.131Z,11.00
2018-11-28T11:02:35.254Z,11.50
2018-11-28T11:03:35.093Z,12.10
2018-11-28T11:04:35.079Z,10.80
2018-11-28T11:05:35.075Z,11.70
2018-11-28T11:06:35.060Z,10.90
2018-11-28T11:07:35.043Z,13.10
2018-11-28T11:08:35.033Z,10.50
2018-11-28T11:09:35.022Z,10.20
2018-11-28T11:10:35.017Z,12.40
2018-11-28T11:11:35.003Z,12.00
2018-11-28T11:12:35.001Z,11.60
2018-11-28T11:13:34.976Z,10.20
2018-11-28T11:14:34.966Z,12.60
2018-11-28T11:15:34.955Z,12.70
2018-11-28T11:16:34.998Z,12.30
2018-11-28T11:17:34.938Z,13.40
2018-11-28T11:18:34.966Z,13.50
2018-11-28T11:19:34.915Z,11.90
2018-11-28T11:20:34.910Z,11.20
2018-11-28T11:21:34.889Z,12.20
2018-11-28T11:22:34.887Z,11.50
2018-11-28T11:23:34.870Z,11.80
2018-11-28T11:24:34.862Z,11.00
2018-11-28T11:25:34.850Z,11.10
2018-11-28T11:26:34.839Z,12.10
2018-11-28T11:27:34.830Z,12.00
2018-11-28T11:28:34.833Z,11.50
2018-11-28T11:29:34.805Z,11.40
2018-11-28T11:30:34.893Z,11.40
2018-11-28T11:31:34.784Z,11.20
2018-11-28T11:32:34.772Z,10.00
2018-11-28T11:33:34.763Z,13.20
2018-11-28T11:34:34.750Z,14.40
2018-11-28T11:35:34.739Z,13.20
2018-11-28T11:36:34.729Z,12.40
2018-11-28T11:37:34.747Z,12.30
2018-11-28T11:38:34.706Z,12.00
2018-11-28T11:39:34.702Z,10.70
2018-11-28T11:40:34.679Z,11.10
2018-11-28T11:41:34.674Z,11.30
2018-11-28T11:42:34.663Z,10.10
2018-11-28T11:43:34.652Z,12.10
2018-11-28T11:44:34.647Z,10.30
2018-11-28T11:45:34.634Z,10.00
2018-11-28T11:46:34.614Z,10.90
2018-11-28T11:47:34.604Z,8.90
2018-11-28T11:48:34.607Z,9.20
2018-11-28T11:49:34.586Z,9.90
2018-11-28T11:50:34.575Z,11.40
2018-11-28T11:51:34.559Z,10.60
2018-11-28T11:52:34.556Z,9.80
2018-11-28T11:53:34.541Z,8.30
2018-11-28T11:54:34.532Z,11.00
2018-11-28T11:55:34.522Z,11.40
2018-11-28T11:56:34.512Z,8.80
2018-11-28T11:57:34.493Z,8.90
2018-11-28T11:58:34.487Z,10.70
2018-11-28T11:59:34.477Z,8.80
2018-11-28T12:00:34.460Z,10.00
2018-11-28T12:01:34.463Z,10.60
2018-11-28T12:02:34.442Z,10.20
2018-11-28T12:03:34.432Z,8.70
2018-11-28T12:04:34.421Z,11.00
2018-11-28T12:05:34.441Z,9.60
2018-11-28T12:06:34.397Z,9.70
2018-11-28T12:07:34.389Z,11.00
2018-11-28T12:08:34.395Z,10.10
2018-11-28T12:09:34.421Z,9.20
2018-11-28T12:10:34.360Z,10.50
2018-11-28T12:11:34.341Z,11.50
2018-11-28T12:12:34.337Z,10.10
2018-11-28T12:13:34.319Z,11.90
2018-11-28T12:14:34.306Z,9.00
2018-11-28T12:15:35.653Z,10.10
2018-11-28T12:16:34.285Z,9.50
2018-11-28T12:17:34.297Z,9.80
2018-11-28T12:18:34.273Z,9.70
2018-11-28T12:19:34.269Z,8.40
2018-11-28T12:20:34.247Z,9.40
2018-11-28T12:21:34.235Z,9.80
2018-11-28T12:22:34.223Z,8.50
2018-11-28T12:23:34.213Z,10.50
2018-11-28T12:24:34.205Z,13.70
2018-11-28T12:25:34.189Z,13.40
2018-11-28T12:26:34.174Z,11.10
2018-11-28T12:27:34.168Z,10.00
2018-11-28T12:28:34.171Z,10.30
2018-11-28T12:29:34.174Z,9.40
2018-11-28T12:30:34.130Z,11.30
2018-11-28T12:31:34.125Z,9.40
2018-11-28T12:32:34.112Z,8.60
2018-11-28T12:33:34.104Z,8.60
2018-11-28T12:34:34.088Z,8.60
2018-11-28T12:35:34.085Z,8.70
2018-11-28T12:36:34.071Z,8.40
2018-11-28T12:37:34.054Z,9.70
2018-11-28T12:38:34.042Z,8.50
2018-11-28T12:39:34.099Z,9.50
2018-11-28T12:40:34.026Z,9.40
2018-11-28T12:41:34.012Z,9.60
2018-11-28T12:42:34.003Z,6.90
2018-11-28T12:43:33.992Z,8.50
2018-11-28T12:44:33.976Z,9.00
2018-11-28T12:45:33.972Z,8.70
2018-11-28T12:46:33.960Z,8.70
2018-11-28T12:47:33.953Z,11.50
2018-11-28T12:48:33.932Z,9.70
2018-11-28T12:49:33.928Z,7.80
2018-11-28T12:50:33.916Z,12.80
2018-11-28T12:51:33.899Z,7.60
2018-11-28T12:52:33.899Z,8.30
2018-11-28T12:53:33.878Z,8.60
2018-11-28T12:54:33.877Z,8.00
2018-11-28T12:55:33.860Z,8.40
2018-11-28T12:56:33.844Z,10.20
2018-11-28T12:57:33.833Z,7.40
2018-11-28T12:58:33.829Z,8.00
2018-11-28T12:59:33.817Z,9.60
2018-11-28T13:00:33.805Z,9.20
2018-11-28T13:01:33.794Z,7.40
2018-11-28T13:02:33.784Z,10.40
2018-11-28T13:03:33.783Z,9.10
2018-11-28T13:04:33.765Z,8.60
2018-11-28T13:05:33.817Z,9.40
2018-11-28T13:06:33.741Z,9.80